Share

Great Falls, MT

6S Great Falls (KMTGREAT11) Elev 3510 ft | 47.43 °N, 111.32 °W | Change Station

Current weather conditions updated 2 seconds ago

Clear
Clear
66.2 °F
Feels Like 66.2 °F
N
12.5
Wind Variable Wind from SW
Gusts 17.2 mph
Sunrise 6:29 AM
Sunset 8:20 PM
Moon Waning Gibbous

Today is forecast to be Much Warmer than yesterday.

Pressure 29.89 in
Visibility 10.0 miles
Clouds Clear
Dew Point 25 °F
Humidity 21%
Rainfall 0.00 in
Snow Depth Not available.
UV 9 out of 16
Pollen 10.70 out of 12
Air Quality Not available.
Flu Activity Sporadic
METAR KGTF 191953Z 22011G23KT 10SM CLR 15/M09 A2987 RMK AO2 SLP122 T01501094

More Conditions Fewer Conditions

Pressure 29.89 in
Visibility 10.0 miles
Clouds Clear
Dew Point 25 °F
Humidity 21%
Rainfall 0.00 in
Snow Depth Not available.
UV 9 out of 16
Pollen 10.70 out of 12
Air Quality Not available.
Flu Activity Sporadic
METAR KGTF 191953Z 22011G23KT 10SM CLR 15/M09 A2987 RMK AO2 SLP122 T01501094

More Conditions Fewer Conditions

10-Day Weather Forecast

Almanac

Astronomy

Apr. 19, 2014 Rise Set
Actual Time 6:29 AM MDT 8:20 PM MDT
Civil Twilight 5:56 AM MDT 8:53 PM MDT
Nautical Twilight 5:16 AM MDT 9:33 PM MDT
Astronomical Twilight 4:32 AM MDT 10:18 PM MDT
Moon 12:17 AM MDT 9:42 AM MDT
Length of Visible Light 14h 56m
Length of Day
13h 51m
Tomorrow will be 3m 13s longer.
Waning Gibbous, 77% of the Moon is Illuminated
Today
Waning Gibbous
Apr 22
Last Quarter
Apr 29
New
May 6
First Quarter
May 14
Full

Today's Extremes

State Highs State Lows

Community

  • Skirting the Horizon
    Skirting the Horizon
  • Piriapolis
    Piriapolis
  • A Glorious Morning
    A Glorious Morning
  • Tender Rays Of Hope
    Tender Rays Of Hope
  • Bleeding Hearts
    Bleeding Hearts

WunderPhotos

Upload Photos

1,702,892 photos uploaded!

WunderBlogs® & News

Nearby

Snow Depth

Station Depth Elevation
Stringer Creek 47 in 6550 ft
Onion Park 56 in 7410 ft
Deadman Creek 41 in 6450 ft
Spur Park 92 in 8100 ft
Pickfoot Creek 40 in 6650 ft

Coastal Water Temperatures

Place Temperature
No Stations Reporting

Earthquake Activity

City Distance Mag. Time & Date
No recent earthquake activity has been reported nearby.
Minimum magnitude displayed is 2.5.

Nearby Weather Stations

Station Location Temp. Dew Point Humidity Wind Precip. Elev Updated Type
6S Great Falls, Great Falls, MT 66.2 °F 25 °F 21% SW  at  12.5 mph 0.00 in / hr 3510 ft 2:47 PM MDT Rapid Fire
Countryside Village, Great Falls, MT 62.6 °F 26 °F 25% SSE  at  7.6 mph 0.00 in / hr 3514 ft 2:47 PM MDT Rapid Fire
Windy Acres, Great Falls, MT 63.0 °F 16 °F 16% SSW  at  3.6 mph 0.00 in / hr 3465 ft 2:47 PM MDT Normal

Show More Stations Show Fewer Stations

What do you think?

We're not finished. Please let us know what you like, what you don't like, and what you are still missing.